Perry County Municipal, IN

8:11 AM CDT on July 23, 2016 (GMT -0500)
Hancock County, Ky | | Change Station
Active Advisory: Heat Advisory

Elev 404 ft 37.90 °N, 86.88 °W | Updated 6 seconds ago

Clear
Clear
76.4 °F
Feels Like 76 °F
N
0.0
Wind Variable Wind from South
Gusts 0.0 mph

Today
High -- | Low -- °F
--% Chance of Precip.
Yesterday
High -- | Low -- °F
Precip. -- in
Pressure 30.02 in
Visibility 10.0 miles
Clouds Clear
Heat Index 76 °F
Dew Point 76 °F
Humidity 97%
Rainfall in
Snow Depth Not available.
5:42 AM 8:03 PM
Waning Gibbous, 85% visible
METAR KHNB 231255Z 14006KT 10SM CLR 24/22 A3002 RMK AO1
Pressure 30.02 in
Visibility 10.0 miles
Clouds Clear
Heat Index 76 °F
Dew Point 76 °F
Humidity 97%
Rainfall in
Snow Depth Not available.
5:42 AM 8:03 PM
Waning Gibbous, 85% visible
METAR KHNB 231255Z 14006KT 10SM CLR 24/22 A3002 RMK AO1

10-Day Weather Forecast

Almanac

Astronomy

Jul. 23, 2016 Rise Set
Actual Time
Civil Twilight
Nautical Twilight
Astronomical Twilight
Moon
Length of Visible Light
Length of Day
Tomorrow will be .
, % of the Moon is Illuminated

Today's Extremes

State Highs State Lows

Community

WunderPhotos

Upload Photos

1,926,816 photos uploaded!

WunderBlog® & News

Nearby

Air Quality

  Air Quality AQ Index Pollutant
Not available.

Snow Depth

Station Depth Elevation

Earthquake Activity

City Distance Mag. Time & Date
Minimum magnitude displayed is 2.5.

Coastal Water Temperatures

Place Temperature

Stations

Nearby Weather Stations

Station Location Temp. Windchill Dew Point Humidity Wind Precip. Elev Updated Type
                   

Watches & Warnings

Heat Advisory
Issued: 2:05 AM CDT Jul. 23, 2016 – National Weather Service

... Heat advisory remains in effect until 8 PM EDT this evening...

* temperature... high temperatures in the afternoon will warm into
the lower to middle 90s. These temperatures combined with
dewpoints in the lower to middle 70s will produce heat index
readings in the 102 to 107 degree range this afternoon.

Precautionary/preparedness actions...

Take extra precautions... if you work or spend time outside. When
possible... reschedule strenuous activities to early morning or
evening. Know the signs and symptoms of heat exhaustion and heat
stroke. Wear light weight and loose fitting clothing when
possible and drink plenty of water.



Mj